createdAt,value
2017-02-14T00:00:03.415Z,1028.52
2017-02-14T00:05:03.457Z,1028.45
2017-02-14T00:10:03.464Z,1028.34
2017-02-14T00:15:03.254Z,1028.43
2017-02-14T00:20:03.395Z,1028.29
2017-02-14T00:25:03.188Z,1028.29
2017-02-14T00:30:03.043Z,1028.21
2017-02-14T00:35:02.936Z,1028.14
2017-02-14T00:40:02.972Z,1028.16
2017-02-14T00:45:03.641Z,1028.09
2017-02-14T00:50:03.164Z,1028.16
2017-02-14T00:55:03.105Z,1028.23
2017-02-14T01:00:03.076Z,1028.28
2017-02-14T01:05:02.914Z,1028.32
2017-02-14T01:10:03.067Z,1028.22
2017-02-14T01:15:02.905Z,1028.07
2017-02-14T01:20:03.087Z,1028.04
2017-02-14T01:25:03.020Z,1027.9
2017-02-14T01:30:03.301Z,1027.89
2017-02-14T01:35:03.248Z,1027.97
2017-02-14T01:40:03.398Z,1028.05
2017-02-14T01:45:03.310Z,1027.89
2017-02-14T01:50:03.025Z,1027.91
2017-02-14T01:55:03.249Z,1027.85
2017-02-14T02:00:03.147Z,1027.79
2017-02-14T02:05:02.878Z,1027.84
2017-02-14T02:10:02.695Z,1027.79
2017-02-14T02:15:03.623Z,1027.69
2017-02-14T02:20:03.682Z,1027.69
2017-02-14T02:25:03.590Z,1027.51
2017-02-14T02:30:03.643Z,1027.48
2017-02-14T02:35:03.538Z,1027.53
2017-02-14T02:40:02.955Z,1027.38
2017-02-14T02:45:02.857Z,1027.31
2017-02-14T02:50:03.679Z,1027.29
2017-02-14T02:55:03.630Z,1027.39
2017-02-14T03:00:03.502Z,1027.46
2017-02-14T03:05:03.557Z,1027.45
2017-02-14T03:10:03.341Z,1027.36
2017-02-14T03:15:03.417Z,1027.33
2017-02-14T03:20:03.396Z,1027.28
2017-02-14T03:25:03.273Z,1027.34
2017-02-14T03:30:03.194Z,1027.32
2017-02-14T03:35:03.229Z,1027.33
2017-02-14T03:40:03.126Z,1027.31
2017-02-14T03:45:02.971Z,1027.3
2017-02-14T03:50:02.908Z,1027.32
2017-02-14T03:55:03.904Z,1027.33
2017-02-14T04:00:03.334Z,1027.37
2017-02-14T04:05:03.195Z,1027.46
2017-02-14T04:10:03.357Z,1027.46
2017-02-14T04:15:03.477Z,1027.53
2017-02-14T04:20:03.599Z,1027.55
2017-02-14T04:25:06.512Z,1027.5
2017-02-14T04:30:03.367Z,1027.5
2017-02-14T04:35:03.066Z,1027.49
2017-02-14T04:40:02.994Z,1027.5
2017-02-14T04:45:02.810Z,1027.5
2017-02-14T04:50:02.755Z,1027.66
2017-02-14T04:55:03.583Z,1027.61
2017-02-14T05:00:03.560Z,1027.51
2017-02-14T05:05:03.622Z,1027.54
2017-02-14T05:10:03.546Z,1027.43
2017-02-14T05:15:03.503Z,1027.44
2017-02-14T05:20:03.363Z,1027.52
2017-02-14T05:25:03.699Z,1027.37
2017-02-14T05:30:03.351Z,1027.25
2017-02-14T05:35:03.625Z,1027.31
2017-02-14T05:40:02.763Z,1027.38
2017-02-14T05:45:03.598Z,1027.45
2017-02-14T05:50:03.650Z,1027.42
2017-02-14T05:55:03.546Z,1027.49
2017-02-14T06:00:02.696Z,1027.55
2017-02-14T06:05:03.504Z,1027.7
2017-02-14T06:10:03.552Z,1027.76
2017-02-14T06:15:03.294Z,1027.74
2017-02-14T06:20:03.173Z,1027.8
2017-02-14T06:25:03.100Z,1027.87
2017-02-14T06:30:02.980Z,1027.94
2017-02-14T06:35:02.797Z,1027.98
2017-02-14T06:40:03.677Z,1027.98
2017-02-14T06:45:03.533Z,1028.04
2017-02-14T06:50:03.291Z,1028.06
2017-02-14T06:55:03.250Z,1028.11
2017-02-14T07:00:03.079Z,1028.18
2017-02-14T07:05:02.837Z,1028.24
2017-02-14T07:10:02.688Z,1028.38
2017-02-14T07:15:02.770Z,1028.46
2017-02-14T07:20:03.531Z,1028.55
2017-02-14T07:25:03.257Z,1028.57
2017-02-14T07:30:03.490Z,1028.66
2017-02-14T07:35:03.379Z,1028.68
2017-02-14T07:40:03.345Z,1028.74
2017-02-14T07:45:03.461Z,1028.76
2017-02-14T07:50:03.335Z,1028.79
2017-02-14T07:55:03.299Z,1028.81
2017-02-14T08:00:03.138Z,1028.87
2017-02-14T08:05:03.337Z,1028.95
2017-02-14T08:10:03.040Z,1028.97
2017-02-14T08:15:02.855Z,1029.01
2017-02-14T08:20:03.668Z,1028.99
2017-02-14T08:25:03.390Z,1029.03
2017-02-14T08:30:03.287Z,1029.13
2017-02-14T08:35:03.358Z,1029.29
2017-02-14T08:40:03.306Z,1029.35
2017-02-14T08:45:03.365Z,1029.34
2017-02-14T08:50:03.258Z,1029.33
2017-02-14T08:55:03.287Z,1029.45
2017-02-14T09:00:03.150Z,1029.41
2017-02-14T09:05:02.920Z,1029.47
2017-02-14T09:10:03.636Z,1029.42
2017-02-14T09:15:03.332Z,1029.47
2017-02-14T09:20:03.173Z,1029.56
2017-02-14T09:25:03.133Z,1029.59
2017-02-14T09:30:03.377Z,1029.64
2017-02-14T09:35:03.277Z,1029.64
2017-02-14T09:40:03.150Z,1029.64
2017-02-14T09:45:03.006Z,1029.65
2017-02-14T09:50:02.814Z,1029.65
2017-02-14T09:55:02.812Z,1029.72
2017-02-14T10:00:02.759Z,1029.7
2017-02-14T10:05:03.634Z,1029.65
2017-02-14T10:10:03.564Z,1029.72
2017-02-14T10:15:03.524Z,1029.72
2017-02-14T10:20:03.370Z,1029.8
2017-02-14T10:25:03.664Z,1029.86
2017-02-14T10:30:02.966Z,1029.79
2017-02-14T10:35:03.004Z,1029.85
2017-02-14T10:40:03.357Z,1029.75
2017-02-14T10:45:03.165Z,1029.78
2017-02-14T10:50:03.003Z,1029.78
2017-02-14T10:55:03.099Z,1029.7
2017-02-14T11:00:03.147Z,1029.74
2017-02-14T11:05:03.157Z,1029.63
2017-02-14T11:10:02.863Z,1029.59
2017-02-14T11:15:02.876Z,1029.63
2017-02-14T11:20:03.210Z,1029.7
2017-02-14T11:25:03.666Z,1029.62
2017-02-14T11:30:03.480Z,1029.63
2017-02-14T11:35:02.752Z,1029.65
2017-02-14T11:40:03.652Z,1029.58
2017-02-14T11:45:02.876Z,1029.64
2017-02-14T11:50:03.482Z,1029.61
2017-02-14T11:55:03.606Z,1029.54
2017-02-14T12:00:03.382Z,1029.51
2017-02-14T12:05:03.255Z,1029.53
2017-02-14T12:10:03.225Z,1029.63
2017-02-14T12:15:03.691Z,1029.55
2017-02-14T12:20:03.212Z,1029.42
2017-02-14T12:25:03.644Z,1029.43
2017-02-14T12:30:03.160Z,1029.47
2017-02-14T12:35:03.451Z,1029.46
2017-02-14T12:40:02.758Z,1029.37
2017-02-14T12:45:03.123Z,1029.43
2017-02-14T12:50:03.289Z,1029.42
2017-02-14T12:55:03.277Z,1029.37
2017-02-14T13:00:03.277Z,1029.47
2017-02-14T13:05:03.501Z,1029.34
2017-02-14T13:10:03.625Z,1029.4
2017-02-14T13:15:02.795Z,1029.34
2017-02-14T13:20:02.879Z,1029.33
2017-02-14T13:25:03.108Z,1029.33
2017-02-14T13:30:03.319Z,1029.28
2017-02-14T13:35:02.819Z,1029.31
2017-02-14T13:40:03.229Z,1029.31
2017-02-14T13:45:02.860Z,1029.28
2017-02-14T13:50:02.856Z,1029.31
2017-02-14T13:55:03.267Z,1029.25
2017-02-14T14:00:03.491Z,1029.42
2017-02-14T14:05:02.782Z,1029.33
2017-02-14T14:10:03.274Z,1029.38
2017-02-14T14:15:03.594Z,1029.4
2017-02-14T14:20:03.137Z,1029.44
2017-02-14T14:25:02.833Z,1029.5
2017-02-14T14:30:03.313Z,1029.51
2017-02-14T14:35:03.571Z,1029.48
2017-02-14T14:40:03.214Z,1029.42
2017-02-14T14:45:02.976Z,1029.39
2017-02-14T14:50:02.928Z,1029.4
2017-02-14T14:55:02.989Z,1029.35
2017-02-14T15:00:03.260Z,1029.42
2017-02-14T15:05:02.793Z,1029.36
2017-02-14T15:10:03.390Z,1029.38
2017-02-14T15:15:03.296Z,1029.4
2017-02-14T15:20:03.154Z,1029.41
2017-02-14T15:25:03.035Z,1029.44
2017-02-14T15:30:03.269Z,1029.49
2017-02-14T15:35:03.121Z,1029.48
2017-02-14T15:40:02.778Z,1029.48
2017-02-14T15:45:03.722Z,1029.48
2017-02-14T15:50:03.258Z,1029.55
2017-02-14T15:55:03.631Z,1029.55
2017-02-14T16:00:03.296Z,1029.59
2017-02-14T16:05:02.723Z,1029.66
2017-02-14T16:10:03.109Z,1029.7
2017-02-14T16:15:03.556Z,1029.75
2017-02-14T16:20:02.894Z,1029.71
2017-02-14T16:25:02.995Z,1029.8
2017-02-14T16:30:03.169Z,1029.83
2017-02-14T16:35:03.148Z,1029.81
2017-02-14T16:40:03.065Z,1029.78
2017-02-14T16:45:03.143Z,1029.81
2017-02-14T16:50:02.960Z,1029.79
2017-02-14T16:55:02.845Z,1029.79
2017-02-14T17:00:02.917Z,1029.73
2017-02-14T17:05:02.997Z,1029.85
2017-02-14T17:10:02.970Z,1030.03
2017-02-14T17:15:03.167Z,1030.08
2017-02-14T17:20:03.108Z,1030.08
2017-02-14T17:25:03.098Z,1030.14
2017-02-14T17:30:03.097Z,1030.22
2017-02-14T17:35:03.138Z,1030.39
2017-02-14T17:40:03.424Z,1030.46
2017-02-14T17:45:03.270Z,1030.53
2017-02-14T17:50:03.275Z,1030.61
2017-02-14T17:55:02.996Z,1030.67
2017-02-14T18:00:03.322Z,1030.71
2017-02-14T18:05:03.138Z,1030.69
2017-02-14T18:10:03.090Z,1030.69
2017-02-14T18:15:03.055Z,1030.74
2017-02-14T18:20:02.821Z,1030.66
2017-02-14T18:25:02.735Z,1030.59
2017-02-14T18:30:03.563Z,1030.6
2017-02-14T18:35:03.512Z,1030.66
2017-02-14T18:40:03.532Z,1030.58
2017-02-14T18:45:03.387Z,1030.58
2017-02-14T18:50:03.364Z,1030.65
2017-02-14T18:55:03.043Z,1030.66
2017-02-14T19:00:02.974Z,1030.63
2017-02-14T19:05:03.104Z,1030.7
2017-02-14T19:10:03.058Z,1030.7
2017-02-14T19:15:02.883Z,1030.64
2017-02-14T19:20:02.798Z,1030.78
2017-02-14T19:25:03.603Z,1030.93
2017-02-14T19:30:03.607Z,1030.85
2017-02-14T19:35:02.872Z,1031
2017-02-14T19:40:03.688Z,1030.87
2017-02-14T19:45:03.462Z,1030.75
2017-02-14T19:50:03.438Z,1030.92
2017-02-14T19:55:03.450Z,1030.91
2017-02-14T20:00:03.534Z,1030.99
2017-02-14T20:05:03.449Z,1031
2017-02-14T20:10:03.313Z,1031.01
2017-02-14T20:15:03.332Z,1031.06
2017-02-14T20:20:03.393Z,1031.12
2017-02-14T20:25:03.283Z,1031.13
2017-02-14T20:30:03.447Z,1031.16
2017-02-14T20:35:03.385Z,1031.05
2017-02-14T20:40:03.279Z,1031.05
2017-02-14T20:45:03.187Z,1031.07
2017-02-14T20:50:03.330Z,1031.01
2017-02-14T20:55:03.285Z,1030.94
2017-02-14T21:00:03.221Z,1031.03
2017-02-14T21:05:03.189Z,1031.06
2017-02-14T21:10:03.234Z,1031.06
2017-02-14T21:15:03.074Z,1031
2017-02-14T21:20:02.861Z,1031.12
2017-02-14T21:25:03.566Z,1031.06
2017-02-14T21:30:03.639Z,1031.07
2017-02-14T21:35:03.617Z,1031.06
2017-02-14T21:40:03.503Z,1030.98
2017-02-14T21:45:03.763Z,1030.95
2017-02-14T21:50:03.659Z,1030.94
2017-02-14T21:55:03.427Z,1031.01
2017-02-14T22:00:03.446Z,1030.99
2017-02-14T22:05:03.641Z,1031.02
2017-02-14T22:10:03.450Z,1031.02
2017-02-14T22:15:03.588Z,1031.04
2017-02-14T22:20:03.394Z,1031.07
2017-02-14T22:25:03.679Z,1031.08
2017-02-14T22:30:03.613Z,1031.08
2017-02-14T22:35:03.378Z,1031.07
2017-02-14T22:40:03.319Z,1031.05
2017-02-14T22:45:03.276Z,1031.02
2017-02-14T22:50:03.082Z,1031.06
2017-02-14T22:55:02.974Z,1030.96
2017-02-14T23:00:02.966Z,1031.02
2017-02-14T23:05:02.825Z,1031.02
2017-02-14T23:10:02.800Z,1031.02
2017-02-14T23:15:02.747Z,1031.08
2017-02-14T23:20:02.943Z,1031.14
2017-02-14T23:25:02.879Z,1031.26
2017-02-14T23:30:02.745Z,1031.24
2017-02-14T23:35:03.699Z,1031.26
2017-02-14T23:40:02.774Z,1031.36
2017-02-14T23:45:02.765Z,1031.33
2017-02-14T23:50:02.978Z,1031.33
2017-02-14T23:55:02.981Z,1031.31
